Time;durP1;ratioP1;P1;durP2;ratioP2;P2;SDS_P1;SDS_P2;PMS_P1;PMS_P2;Temp;Humidity;BMP_temperature;BMP_pressure;BME280_temperature;BME280_humidity;BME280_pressure;Samples;Min_cycle;Max_cycle;Signal;HPM_P1;HPM_P2
2022/10/06 00:00:32;;;;;;;11.13;5.93;;;;;;;12.37;60.77;101733.78;5011130;28;20030;-71
2022/10/06 00:02:58;;;;;;;13.57;5.47;;;;;;;12.29;61.11;101737.69;5011553;28;20026;-68
2022/10/06 00:05:23;;;;;;;10.93;4.22;;;;;;;12.20;61.68;101738.13;5011117;28;20033;-67
2022/10/06 00:07:49;;;;;;;7.55;3.72;;;;;;;12.08;61.93;101733.19;5011123;28;20026;-70
2022/10/06 00:10:15;;;;;;;11.98;4.80;;;;;;;12.04;62.17;101725.22;5011067;28;20109;-70
2022/10/06 00:12:49;;;;;;;5.90;3.40;;;;;;;12.08;62.03;101722.84;5011083;28;20030;-67
2022/10/06 00:15:19;;;;;;;7.30;3.72;;;;;;;12.09;62.15;101734.09;5011164;28;20038;-72
2022/10/06 00:17:44;;;;;;;9.25;3.72;;;;;;;12.14;62.23;101732.63;5011083;28;20109;-72
2022/10/06 00:20:11;;;;;;;8.52;4.10;;;;;;;12.28;61.33;101729.03;5011076;28;20038;-70
2022/10/06 00:22:40;;;;;;;7.00;3.60;;;;;;;12.42;60.67;101740.09;5011030;28;20022;-70
2022/10/06 00:25:06;;;;;;;8.60;3.55;;;;;;;12.14;60.66;101694.69;5008659;28;20042;-67
2022/10/06 00:27:37;;;;;;;8.60;3.72;;;;;;;12.32;60.90;101739.56;5011161;28;20096;-67
2022/10/06 00:30:04;;;;;;;17.20;4.18;;;;;;;12.20;62.03;101737.22;5011027;28;20107;-68
2022/10/06 00:32:30;;;;;;;6.18;3.47;;;;;;;12.19;63.60;101731.16;5010959;28;20080;-71
2022/10/06 00:34:57;;;;;;;9.68;4.13;;;;;;;12.06;64.63;101728.75;5010990;28;20030;-70
2022/10/06 00:37:23;;;;;;;8.15;2.83;;;;;;;11.93;65.83;101709.09;5014680;28;20030;-67
2022/10/06 00:39:48;;;;;;;5.95;2.63;;;;;;;11.89;66.23;101725.28;5014544;28;20415;-67
2022/10/06 00:42:25;;;;;;;5.75;2.78;;;;;;;11.33;68.22;101730.13;5015214;28;20030;-68
2022/10/06 00:44:51;;;;;;;7.97;2.60;;;;;;;11.34;68.02;101687.94;5014750;28;20112;-70
2022/10/06 00:47:18;;;;;;;6.85;2.42;;;;;;;11.70;68.25;101729.50;5014635;28;20113;-67
2022/10/06 00:49:44;;;;;;;11.05;3.17;;;;;;;11.72;68.49;101727.88;5014600;28;20066;-68
2022/10/06 00:52:15;;;;;;;6.03;2.78;;;;;;;11.71;68.61;101720.03;5014436;28;20088;-74
2022/10/06 00:54:41;;;;;;;7.22;2.58;;;;;;;11.68;68.75;101725.94;5014582;28;20045;-73
2022/10/06 00:57:07;;;;;;;3.70;2.30;;;;;;;11.64;68.66;101719.69;5014574;28;20109;-70
2022/10/06 00:59:34;;;;;;;8.55;3.08;;;;;;;11.44;68.91;101712.56;5014449;28;20108;-70
2022/10/06 01:02:14;;;;;;;9.00;2.60;;;;;;;11.46;69.11;101719.63;5014420;28;20021;-70
2022/10/06 01:04:43;;;;;;;;;;;;;;;11.56;68.17;101723.56;5014718;28;20507;-68
2022/10/06 01:07:09;;;;;;;7.22;2.70;;;;;;;11.47;68.35;101711.03;5014847;28;19971;-73
2022/10/06 01:09:35;;;;;;;9.00;3.15;;;;;;;11.44;68.17;101718.66;5014447;28;20455;-67
2022/10/06 01:12:04;;;;;;;11.07;3.35;;;;;;;11.47;66.98;101705.88;5014226;28;20080;-69
2022/10/06 01:14:30;;;;;;;7.85;3.40;;;;;;;11.28;66.02;101674.69;5014134;28;20030;-71
2022/10/06 01:17:01;;;;;;;5.05;3.30;;;;;;;11.23;66.28;101704.59;5014353;28;20030;-67
2022/10/06 01:19:35;;;;;;;12.30;4.07;;;;;;;10.86;65.92;101656.06;5013897;28;20536;-71
2022/10/06 01:22:05;;;;;;;4.65;3.00;;;;;;;11.17;64.11;101706.00;5014246;28;20026;-68
2022/10/06 01:24:30;;;;;;;5.82;3.17;;;;;;;11.15;64.40;101698.97;5014124;28;20109;-72
2022/10/06 01:26:57;;;;;;;7.45;3.15;;;;;;;11.10;64.82;101703.91;5014019;28;20540;-67
2022/10/06 01:29:24;;;;;;;4.50;2.95;;;;;;;11.14;65.22;101703.25;5029052;28;20040;-71
2022/10/06 01:31:50;;;;;;;5.95;3.42;;;;;;;10.98;64.91;101667.06;5013781;28;20628;-68
2022/10/06 01:34:15;;;;;;;8.05;3.53;;;;;;;11.24;64.91;101699.50;5013957;28;20083;-70
2022/10/06 01:36:41;;;;;;;6.50;3.60;;;;;;;11.22;63.91;101690.75;5014139;28;20026;-66
2022/10/06 01:39:06;;;;;;;7.72;3.70;;;;;;;11.27;63.45;101702.22;5013724;28;20137;-66
2022/10/06 01:41:33;;;;;;;6.50;3.58;;;;;;;11.26;64.11;101702.16;4995267;28;20053;-67
2022/10/06 01:43:59;;;;;;;5.13;3.13;;;;;;;11.25;64.52;101708.13;5013673;28;20409;-67
2022/10/06 01:46:24;;;;;;;8.10;3.50;;;;;;;11.29;64.42;101697.13;5013388;28;20056;-67
2022/10/06 01:48:49;;;;;;;7.60;3.92;;;;;;;11.27;64.66;101707.38;5012674;28;20049;-68
2022/10/06 01:51:15;;;;;;;5.78;3.40;;;;;;;11.35;64.32;101700.03;5013674;28;20025;-67
2022/10/06 01:53:41;;;;;;;8.15;4.05;;;;;;;11.41;64.37;101692.63;5013523;28;20049;-69
2022/10/06 01:56:07;;;;;;;9.50;3.88;;;;;;;11.50;63.60;101694.78;5013322;28;20037;-69
2022/10/06 01:58:33;;;;;;;10.27;3.67;;;;;;;11.42;61.43;101696.09;5013352;28;20034;-68
2022/10/06 02:01:04;;;;;;;10.45;4.05;;;;;;;11.24;61.16;101685.66;5011140;28;20044;-71
2022/10/06 02:03:30;;;;;;;7.07;3.60;;;;;;;11.09;61.74;101696.06;5013240;28;20034;-70
2022/10/06 02:05:56;;;;;;;7.32;3.47;;;;;;;10.90;61.69;101700.22;5013467;28;20099;-70
2022/10/06 02:08:21;;;;;;;7.57;3.08;;;;;;;10.66;61.74;101704.91;5013167;28;20419;-72
2022/10/06 02:10:46;;;;;;;6.20;3.03;;;;;;;10.55;62.70;101706.00;5013138;28;20137;-70
2022/10/06 02:13:12;;;;;;;7.57;2.97;;;;;;;10.44;64.15;101707.94;5013072;28;20029;-70
2022/10/06 02:15:37;;;;;;;5.90;3.33;;;;;;;10.45;65.01;101717.47;5012818;28;20088;-67
2022/10/06 02:18:03;;;;;;;6.85;2.95;;;;;;;10.21;64.81;101684.25;5012916;28;20034;-70
2022/10/06 02:20:28;;;;;;;10.40;3.10;;;;;;;10.39;65.54;101720.59;5012638;28;20037;-72
2022/10/06 02:22:53;;;;;;;9.38;3.25;;;;;;;10.23;65.77;101721.38;5013084;28;20038;-71
2022/10/06 02:25:19;;;;;;;7.90;3.50;;;;;;;10.29;65.35;101720.81;5012935;28;20408;-67
2022/10/06 02:27:44;;;;;;;8.23;3.25;;;;;;;10.02;64.72;101683.19;5012845;28;20068;-67
2022/10/06 02:30:11;;;;;;;6.55;3.25;;;;;;;9.99;65.53;101720.81;4994221;28;20052;-70
2022/10/06 02:32:39;;;;;;;9.35;3.70;;;;;;;9.88;65.94;101723.66;5012776;28;20120;-70
2022/10/06 02:35:05;;;;;;;7.47;3.47;;;;;;;9.55;65.78;101682.13;5012836;28;20034;-71
2022/10/06 02:37:31;;;;;;;7.55;3.35;;;;;;;9.63;66.15;101723.84;5012551;28;20038;-72
2022/10/06 02:39:57;;;;;;;6.95;3.10;;;;;;;9.57;66.11;101707.09;4993656;28;20397;-71
2022/10/06 02:42:22;;;;;;;9.07;3.35;;;;;;;9.71;66.05;101719.16;5012381;28;20034;-71
2022/10/06 02:44:49;;;;;;;6.93;3.47;;;;;;;9.67;66.80;101709.44;5012305;28;20386;-70
2022/10/06 02:47:15;;;;;;;7.88;3.00;;;;;;;9.86;66.76;101720.06;5012635;28;20411;-71
2022/10/06 02:49:40;;;;;;;7.00;2.80;;;;;;;9.60;67.23;101720.19;5012491;28;20115;-66
2022/10/06 02:52:06;;;;;;;5.05;2.50;;;;;;;9.32;67.93;101714.25;5012102;28;20152;-67
2022/10/06 02:54:34;;;;;;;7.70;3.58;;;;;;;9.46;67.33;101725.41;5012436;28;20504;-71
2022/10/06 02:56:59;;;;;;;10.07;2.90;;;;;;;9.53;67.23;101714.66;5012249;28;20034;-68
2022/10/06 02:59:25;;;;;;;8.80;3.30;;;;;;;9.60;67.12;101725.34;5011671;28;20041;-67
2022/10/06 03:01:51;;;;;;;8.93;3.58;;;;;;;9.56;66.46;101703.66;5012137;28;20096;-64
2022/10/06 03:04:16;;;;;;;8.75;2.90;;;;;;;9.73;66.18;101711.50;5012215;28;20084;-67
2022/10/06 03:06:42;;;;;;;6.28;2.83;;;;;;;9.86;64.82;101720.06;5012083;28;20072;-64
2022/10/06 03:09:08;;;;;;;6.80;3.00;;;;;;;9.74;64.17;101672.91;5010698;28;20044;-72
2022/10/06 03:11:36;;;;;;;11.63;3.22;;;;;;;9.93;63.34;101710.13;5012100;28;20041;-68
2022/10/06 03:14:03;;;;;;;8.95;2.78;;;;;;;9.90;63.19;101712.53;5011749;28;20022;-67
2022/10/06 03:16:33;;;;;;;7.20;2.55;;;;;;;9.64;62.57;101717.00;5012112;28;20092;-69
2022/10/06 03:18:59;;;;;;;;;;;;;;;9.45;63.27;101717.56;5012406;28;20544;-68
2022/10/06 03:21:29;;;;;;;8.52;3.00;;;;;;;9.23;64.14;101718.81;5011770;28;19992;-68
2022/10/06 03:23:56;;;;;;;5.50;2.90;;;;;;;9.19;64.80;101715.13;4997775;28;20038;-65
2022/10/06 03:26:26;;;;;;;8.88;3.10;;;;;;;9.00;65.97;101704.50;4992081;28;20027;-68
2022/10/06 03:28:52;;;;;;;5.50;3.33;;;;;;;9.03;66.27;101714.97;4992085;28;20026;-65
2022/10/06 03:31:17;;;;;;;9.00;3.03;;;;;;;9.01;65.87;101693.38;4992128;28;20393;-68
2022/10/06 03:33:43;;;;;;;8.52;3.13;;;;;;;9.17;65.86;101711.59;4992114;28;20106;-68
2022/10/06 03:36:17;;;;;;;5.30;2.85;;;;;;;9.08;67.92;101713.56;4992000;28;20508;-64
2022/10/06 03:38:42;;;;;;;4.97;2.80;;;;;;;9.14;68.52;101713.97;4991989;28;20034;-65
2022/10/06 03:41:11;;;;;;;5.90;2.65;;;;;;;9.10;69.00;101704.28;4991758;28;20034;-64
2022/10/06 03:43:37;;;;;;;5.75;2.65;;;;;;;8.83;70.26;101712.00;4991653;28;20517;-68
2022/10/06 03:46:03;;;;;;;5.13;2.50;;;;;;;8.78;70.71;101707.38;4991863;28;20037;-67
2022/10/06 03:48:32;;;;;;;4.15;2.67;;;;;;;8.62;70.99;101698.66;4992061;28;20417;-68
2022/10/06 03:51:00;;;;;;;5.10;3.05;;;;;;;8.74;70.88;101706.28;4991747;28;20037;-71
2022/10/06 03:53:28;;;;;;;10.10;2.90;;;;;;;8.67;70.44;101668.97;4991681;28;20068;-68
2022/10/06 03:55:59;;;;;;;5.15;3.17;;;;;;;8.97;69.48;101706.84;4992114;28;20034;-67
2022/10/06 03:58:29;;;;;;;10.80;2.95;;;;;;;9.03;69.06;101703.00;4991511;28;20032;-70
2022/10/06 04:01:03;;;;;;;10.52;3.55;;;;;;;9.01;68.47;101709.72;4991552;28;20121;-70
2022/10/06 04:03:29;;;;;;;5.60;2.97;;;;;;;8.83;68.68;101706.00;4991751;28;20484;-67
2022/10/06 04:05:56;;;;;;;9.50;2.70;;;;;;;8.40;69.05;101665.47;4991477;28;20030;-69
2022/10/06 04:08:23;;;;;;;7.60;2.72;;;;;;;8.59;69.65;101706.19;4973237;28;20485;-67
2022/10/06 04:10:48;;;;;;;7.03;3.20;;;;;;;8.69;69.66;101707.69;4990803;28;20034;-70
2022/10/06 04:13:16;;;;;;;6.40;3.28;;;;;;;8.70;70.19;101706.91;4991631;28;20134;-69
2022/10/06 04:15:42;;;;;;;9.27;3.08;;;;;;;8.47;70.64;101672.81;4991382;28;20037;-70
2022/10/06 04:18:07;;;;;;;9.93;3.22;;;;;;;8.66;70.56;101710.94;4991394;28;20030;-73
2022/10/06 04:20:32;;;;;;;7.25;3.10;;;;;;;8.62;70.34;101708.06;4991122;28;20022;-70
2022/10/06 04:22:58;;;;;;;3.88;2.63;;;;;;;8.52;69.79;101701.44;4991471;28;20026;-70
2022/10/06 04:25:23;;;;;;;6.07;3.13;;;;;;;8.57;69.70;101712.91;4991543;28;20029;-71
2022/10/06 04:27:49;;;;;;;5.80;3.45;;;;;;;8.50;69.89;101714.22;4991396;28;20030;-71
2022/10/06 04:30:14;;;;;;;6.72;2.97;;;;;;;8.51;69.82;101713.41;4991430;28;20026;-70
2022/10/06 04:32:41;;;;;;;10.40;3.63;;;;;;;8.51;69.75;101717.66;4991237;28;20033;-66
2022/10/06 04:35:07;;;;;;;5.47;3.25;;;;;;;8.38;69.89;101723.66;4991227;28;20556;-69
2022/10/06 04:37:32;;;;;;;6.88;3.30;;;;;;;8.40;70.41;101722.09;4991438;28;20034;-66
2022/10/06 04:39:57;;;;;;;28.58;11.23;;;;;;;8.45;70.71;101715.56;4992753;28;20563;-67
2022/10/06 04:42:23;;;;;;;110.53;43.83;;;;;;;8.52;70.98;101716.88;4991378;28;20023;-69
2022/10/06 04:44:48;;;;;;;137.77;53.75;;;;;;;8.38;70.90;101657.63;4991292;28;20026;-67
2022/10/06 04:47:14;;;;;;;141.77;50.47;;;;;;;8.72;70.82;101711.34;4990943;28;20116;-72
2022/10/06 04:49:39;;;;;;;85.22;31.35;;;;;;;8.74;70.81;101709.75;4990797;28;20058;-68
2022/10/06 04:52:04;;;;;;;50.55;19.88;;;;;;;8.68;71.55;101711.03;4991016;28;20470;-71
2022/10/06 04:54:30;;;;;;;47.35;18.67;;;;;;;8.56;71.66;101683.72;4991213;28;20034;-70
2022/10/06 04:56:56;;;;;;;45.17;13.93;;;;;;;8.77;69.96;101719.34;4991134;28;20083;-68
2022/10/06 05:00:21;;;;;;;31.30;10.40;;;;;;;8.54;70.02;101680.16;4991063;28;20052;-66
2022/10/06 05:02:06;;;;;;;21.23;9.43;;;;;;;8.79;69.93;101715.19;4990906;28;20046;-66
2022/10/06 05:04:32;;;;;;;15.15;7.47;;;;;;;8.79;70.17;101716.91;4991330;28;20035;-67
2022/10/06 05:06:57;;;;;;;19.15;8.95;;;;;;;8.78;70.66;101710.84;4991289;28;20031;-70
2022/10/06 05:09:22;;;;;;;36.13;15.05;;;;;;;8.84;70.94;101720.66;4991065;28;20034;-64
2022/10/06 05:11:48;;;;;;;127.47;63.67;;;;;;;8.90;71.53;101723.63;4990985;28;20122;-63
2022/10/06 05:14:13;;;;;;;55.08;27.35;;;;;;;9.01;71.20;101720.03;4990961;28;20030;-67
2022/10/06 05:16:39;;;;;;;16.55;6.13;;;;;;;9.12;70.30;101722.38;4990868;28;20760;-67
2022/10/06 05:19:04;;;;;;;12.90;6.45;;;;;;;9.07;70.08;101704.97;4990886;28;20067;-70
2022/10/06 05:21:31;;;;;;;13.38;6.15;;;;;;;9.15;69.94;101705.44;4992048;28;20125;-70
2022/10/06 05:23:57;;;;;;;20.17;5.85;;;;;;;9.22;70.47;101722.16;4994559;28;20110;-68
2022/10/06 05:26:25;;;;;;;15.20;3.67;;;;;;;9.30;71.92;101714.94;4997336;28;20041;-69
2022/10/06 05:28:50;;;;;;;9.13;3.42;;;;;;;9.45;70.66;101722.72;5004792;28;20036;-68
2022/10/06 05:31:30;;;;;;;10.73;6.30;;;;;;;9.34;70.38;101725.50;5011798;28;20408;-73
2022/10/06 05:33:57;;;;;;;15.90;7.80;;;;;;;9.19;71.59;101725.44;5009730;28;20061;-75
2022/10/06 05:36:28;;;;;;;10.50;3.70;;;;;;;9.36;72.56;101723.06;5009811;28;20030;-76
2022/10/06 05:38:55;;;;;;;9.52;3.85;;;;;;;9.30;72.31;101677.16;5010351;28;20030;-74
2022/10/06 05:41:27;;;;;;;7.88;3.45;;;;;;;9.78;70.40;101718.75;5011354;28;20065;-72
2022/10/06 05:43:53;;;;;;;6.90;3.03;;;;;;;9.98;69.64;101726.75;5012037;28;20117;-74
2022/10/06 05:46:23;;;;;;;10.43;3.10;;;;;;;9.98;69.34;101719.03;5012796;28;20120;-75
2022/10/06 05:48:50;;;;;;;7.03;3.20;;;;;;;9.92;69.67;101726.38;5012588;28;20046;-75
2022/10/06 05:51:18;;;;;;;6.35;3.63;;;;;;;10.06;69.46;101722.09;5009946;28;20022;-74
2022/10/06 05:53:44;;;;;;;7.30;3.40;;;;;;;9.92;69.41;101683.44;5012606;28;20089;-73
2022/10/06 05:56:22;;;;;;;9.10;3.20;;;;;;;10.22;68.99;101711.84;5010288;28;20034;-74
2022/10/06 05:58:50;;;;;;;10.07;3.92;;;;;;;10.48;68.80;101731.47;5011290;28;20125;-76
2022/10/06 06:01:23;;;;;;;8.85;3.63;;;;;;;10.47;68.36;101721.94;5007595;28;20468;-80
2022/10/06 06:03:51;;;;;;;8.80;3.65;;;;;;;10.69;68.29;101730.88;5012455;28;20037;-74
2022/10/06 06:06:19;;;;;;;6.90;3.40;;;;;;;10.78;68.20;101733.09;5012783;28;20049;-73
2022/10/06 06:08:46;;;;;;;5.63;3.70;;;;;;;10.17;69.30;101721.91;5012410;28;20091;-77
2022/10/06 06:11:12;;;;;;;6.82;4.13;;;;;;;10.33;70.70;101736.59;5012536;28;20420;-78
2022/10/06 06:13:37;;;;;;;8.05;4.05;;;;;;;10.50;69.98;101719.53;5012456;28;20033;-75
2022/10/06 06:16:05;;;;;;;6.78;3.95;;;;;;;10.88;69.76;101739.69;5010441;28;20030;-78
2022/10/06 06:18:32;;;;;;;9.43;4.43;;;;;;;11.06;69.09;101742.41;5012021;28;20030;-77
2022/10/06 06:21:00;;;;;;;6.32;3.70;;;;;;;11.20;68.02;101732.84;5011804;28;20531;-75
2022/10/06 06:23:35;;;;;;;7.43;3.67;;;;;;;11.26;67.64;101702.16;5008043;28;20475;-77
2022/10/06 06:26:03;;;;;;;6.55;4.28;;;;;;;11.69;67.05;101735.47;5010373;28;21665;-79
2022/10/06 06:28:30;;;;;;;7.57;4.72;;;;;;;11.92;66.35;101738.38;5005500;28;20033;-78
2022/10/06 06:31:20;;;;;;;7.18;3.72;;;;;;;12.10;65.92;101752.28;5008672;28;20473;-81
2022/10/06 06:33:47;;;;;;;7.75;4.55;;;;;;;12.21;65.58;101744.19;4987549;28;20053;-80
2022/10/06 06:36:17;;;;;;;8.25;4.22;;;;;;;12.17;65.26;101717.25;4989201;28;20045;-77
2022/10/06 06:38:46;;;;;;;8.02;4.45;;;;;;;12.53;64.79;101747.50;4989214;28;20489;-80
2022/10/06 06:41:15;;;;;;;8.07;4.47;;;;;;;12.46;64.58;101705.75;4973257;28;20105;-75
2022/10/06 06:43:41;;;;;;;17.90;5.78;;;;;;;12.94;64.05;101753.81;4972953;28;20026;-78
2022/10/06 06:46:07;;;;;;;8.90;4.50;;;;;;;13.06;63.43;101735.34;4987852;28;20041;-78
2022/10/06 06:48:34;;;;;;;9.20;4.45;;;;;;;13.03;62.88;101698.91;4989552;28;20054;-73
2022/10/06 06:51:00;;;;;;;12.32;5.05;;;;;;;13.42;62.71;101746.59;4990084;28;20042;-76
2022/10/06 06:53:25;;;;;;;8.15;5.03;;;;;;;13.41;62.97;101738.75;4990324;28;20049;-77
2022/10/06 06:55:51;;;;;;;9.15;3.72;;;;;;;13.56;62.49;101739.44;4990352;28;20109;-76
2022/10/06 06:58:20;;;;;;;7.43;4.13;;;;;;;13.65;61.99;101732.88;4990052;28;20539;-77
2022/10/06 07:00:47;;;;;;;6.30;3.70;;;;;;;13.86;61.82;101739.00;4989613;28;20042;-77
2022/10/06 07:03:14;;;;;;;6.68;3.83;;;;;;;14.04;61.39;101735.44;4989392;28;20138;-77
2022/10/06 07:05:39;;;;;;;6.00;3.33;;;;;;;13.96;61.04;101690.97;4989039;28;20472;-77
2022/10/06 07:08:08;;;;;;;5.82;4.07;;;;;;;14.27;60.98;101725.13;4986680;28;20037;-79
2022/10/06 07:10:35;;;;;;;5.95;3.58;;;;;;;14.44;60.61;101720.66;4998852;28;20039;-78
2022/10/06 07:13:00;;;;;;;6.30;3.55;;;;;;;14.71;60.12;101724.41;5011344;28;20044;-79
2022/10/06 07:26:33;;;;;;;7.18;3.72;;;;;;;15.40;58.34;101701.00;5047238;28;20071;-78
2022/10/06 07:28:59;;;;;;;13.32;3.15;;;;;;;15.34;58.20;101686.06;5048462;28;20037;-82
2022/10/06 07:31:32;;;;;;;7.97;3.63;;;;;;;15.52;57.91;101685.84;5048340;28;20505;-78
2022/10/06 07:34:03;;;;;;;12.77;3.47;;;;;;;15.75;57.27;101685.75;5048207;28;20851;-77
2022/10/06 07:36:32;;;;;;;7.13;2.60;;;;;;;15.85;56.61;101682.69;5012805;28;20045;-78
2022/10/06 07:38:57;;;;;;;5.40;2.65;;;;;;;16.04;56.49;101689.41;5047911;28;20028;-75
2022/10/06 07:41:23;;;;;;;5.95;2.60;;;;;;;16.07;56.57;101662.59;5048009;28;20506;-77
2022/10/06 07:43:49;;;;;;;6.57;2.53;;;;;;;16.27;55.89;101689.31;5048069;28;20491;-77
2022/10/06 07:46:14;;;;;;;7.63;3.97;;;;;;;16.44;56.51;101687.25;5047248;28;20183;-77
2022/10/06 07:48:39;;;;;;;5.68;2.40;;;;;;;16.37;54.52;101643.59;5047851;28;20204;-78
2022/10/06 07:51:13;;;;;;;6.50;2.53;;;;;;;16.74;54.53;101687.34;5045092;28;20380;-78
2022/10/06 07:53:39;;;;;;;5.22;2.50;;;;;;;16.78;54.38;101668.31;5047571;28;20473;-78
2022/10/06 07:56:06;;;;;;;7.30;2.33;;;;;;;16.63;54.14;101647.88;5011463;28;20049;-80
2022/10/06 07:58:32;;;;;;;4.40;2.25;;;;;;;17.01;53.67;101662.97;5011198;28;20057;-77
2022/10/06 08:01:06;;;;;;;5.40;2.25;;;;;;;16.66;54.99;101597.56;5011040;28;20385;-79
2022/10/06 08:03:32;;;;;;;5.70;2.17;;;;;;;16.67;54.22;101625.38;5010977;28;20045;-79
2022/10/06 08:06:00;;;;;;;4.03;2.15;;;;;;;16.52;54.57;101632.75;5010951;28;20030;-75
2022/10/06 08:08:26;;;;;;;6.63;2.17;;;;;;;16.84;55.32;101653.72;5011101;28;20030;-80
2022/10/06 08:10:54;;;;;;;4.03;1.90;;;;;;;17.08;56.12;101656.19;5011133;28;20472;-80
2022/10/06 08:13:20;;;;;;;5.85;2.20;;;;;;;17.08;56.60;101636.19;5010867;28;20030;-82
2022/10/06 08:15:48;;;;;;;4.57;2.25;;;;;;;17.30;56.38;101647.28;5010760;28;20112;-79
2022/10/06 08:18:14;;;;;;;4.68;2.13;;;;;;;17.53;55.79;101649.63;5010701;28;20029;-80
2022/10/06 08:20:40;;;;;;;2.95;1.83;;;;;;;17.65;52.94;101639.50;5010585;28;20041;-77
2022/10/06 08:23:07;;;;;;;2.13;1.58;;;;;;;17.73;52.64;101644.94;5010512;28;20034;-76
2022/10/06 08:25:35;;;;;;;4.15;1.73;;;;;;;17.78;52.09;101643.31;5010521;28;20092;-77
2022/10/06 08:28:01;;;;;;;3.72;1.88;;;;;;;17.77;52.78;101636.34;5010633;28;20036;-74
2022/10/06 08:30:26;;;;;;;3.28;2.08;;;;;;;17.72;50.70;101644.06;5010659;28;20415;-76
2022/10/06 08:32:52;;;;;;;3.45;2.03;;;;;;;17.85;51.17;101632.19;5010561;28;20080;-79
2022/10/06 08:35:17;;;;;;;2.88;1.70;;;;;;;17.86;52.97;101639.19;5010834;28;20100;-82
2022/10/06 08:37:42;;;;;;;2.67;1.90;;;;;;;17.95;49.73;101634.22;5011055;28;20026;-77
2022/10/06 08:40:13;;;;;;;2.85;1.92;;;;;;;18.08;50.20;101634.53;5010646;28;20034;-78
2022/10/06 08:42:45;;;;;;;5.53;2.20;;;;;;;18.14;49.09;101595.47;5010677;28;20041;-78
2022/10/06 08:45:38;;;;;;;7.10;2.13;;;;;;;18.40;48.07;101595.22;5010428;28;20026;-76
2022/10/06 08:48:18;;;;;;;6.45;1.83;;;;;;;18.76;48.26;101616.03;5009363;28;20552;-78
2022/10/06 08:51:09;;;;;;;3.80;1.50;;;;;;;18.94;49.57;101621.69;5010574;28;20030;-78
2022/10/06 08:53:45;;;;;;;2.60;1.50;;;;;;;19.04;48.32;101621.00;5008140;28;20056;-76
2022/10/06 08:56:26;;;;;;;3.38;1.50;;;;;;;18.81;46.92;101623.13;5008246;28;20038;-76
2022/10/06 08:59:12;;;;;;;4.15;1.48;;;;;;;18.41;48.14;101610.91;5011575;28;20042;-75
2022/10/06 09:01:55;;;;;;;3.53;1.40;;;;;;;18.53;48.74;101617.28;5011651;28;20847;-77
2022/10/06 09:04:27;;;;;;;4.40;1.77;;;;;;;18.51;47.02;101571.94;4995222;28;20042;-78
2022/10/06 09:07:02;;;;;;;4.05;1.60;;;;;;;18.80;48.31;101579.50;5011723;28;20487;-75
2022/10/06 09:09:39;;;;;;;3.75;1.50;;;;;;;18.98;47.69;101615.66;5011519;28;20457;-77
2022/10/06 09:12:09;;;;;;;11.82;2.47;;;;;;;19.17;46.56;101607.31;5011763;28;20044;-75
2022/10/06 09:14:46;;;;;;;4.28;1.75;;;;;;;19.37;45.70;101598.97;5011630;28;20512;-78
2022/10/06 09:17:28;;;;;;;3.10;1.70;;;;;;;19.27;45.14;101602.28;5005191;28;20052;-76
2022/10/06 09:20:00;;;;;;;2.53;1.60;;;;;;;19.14;46.88;101554.94;4975432;28;20512;-76
2022/10/06 09:22:30;;;;;;;3.92;1.60;;;;;;;19.18;47.40;101595.13;4991889;28;20030;-81
2022/10/06 09:25:13;;;;;;;4.72;1.73;;;;;;;19.48;45.73;101592.19;4975431;28;20042;-78
2022/10/06 09:27:41;;;;;;;3.75;1.70;;;;;;;19.80;46.08;101593.63;4975511;28;20199;-78
2022/10/06 09:30:11;;;;;;;2.97;1.65;;;;;;;20.02;44.58;101592.25;4994147;28;20049;-79
2022/10/06 09:32:39;;;;;;;2.80;1.38;;;;;;;20.19;42.35;101576.81;4994107;28;20030;-81
2022/10/06 09:35:24;;;;;;;4.32;1.52;;;;;;;20.42;41.48;101574.50;4993837;28;20038;-80
2022/10/06 09:37:56;;;;;;;3.60;1.60;;;;;;;20.59;40.54;101577.34;4994192;28;20034;-79
2022/10/06 09:40:36;;;;;;;4.85;1.58;;;;;;;20.74;40.78;101581.97;4992688;28;20522;-79
2022/10/06 09:43:28;;;;;;;2.75;1.55;;;;;;;20.98;39.46;101570.00;4993924;28;20035;-79
2022/10/06 09:46:17;;;;;;;2.88;1.55;;;;;;;21.12;38.52;101571.03;4991299;28;20733;-78
2022/10/06 09:48:43;;;;;;;3.30;1.20;;;;;;;21.07;38.20;101570.13;4991439;28;20050;-79
2022/10/06 09:51:16;;;;;;;3.88;1.58;;;;;;;21.09;40.14;101568.38;4991335;28;20073;-79
2022/10/06 09:53:43;;;;;;;3.65;1.65;;;;;;;21.27;38.91;101564.16;4991384;28;20034;-82
2022/10/06 09:56:20;;;;;;;4.45;1.42;;;;;;;21.43;40.79;101554.69;4991214;28;20512;-81
2022/10/06 09:58:59;;;;;;;3.95;1.75;;;;;;;21.60;41.14;101561.03;4991175;28;20065;-78
2022/10/06 10:01:30;;;;;;;6.32;2.42;;;;;;;21.64;38.41;101549.66;4991135;28;20196;-82
2022/10/06 10:04:05;;;;;;;10.70;2.70;;;;;;;21.74;38.98;101550.63;4991270;28;20092;-83
2022/10/06 10:06:35;;;;;;;7.18;2.00;;;;;;;21.44;37.66;101523.19;4991168;28;20073;-81
2022/10/06 10:09:12;;;;;;;9.75;2.40;;;;;;;21.56;38.72;101543.47;4990066;28;20069;-79
2022/10/06 10:14:21;;;;;;;4.93;1.75;;;;;;;21.58;36.90;101547.00;4991332;28;20085;-82
2022/10/06 10:16:48;;;;;;;2.75;1.40;;;;;;;21.49;36.33;101549.50;4974651;28;20073;-82
2022/10/06 10:19:41;;;;;;;2.55;1.30;;;;;;;21.39;36.75;101524.03;4992203;28;20121;-79
2022/10/06 10:22:21;;;;;;;2.97;1.40;;;;;;;21.69;37.32;101517.28;5010922;28;20038;-81
2022/10/06 10:24:49;;;;;;;;;;;;;;;21.47;37.07;101524.94;5011358;28;20072;-77
2022/10/06 10:27:59;;;;;;;18.13;2.00;;;;;;;21.70;37.44;101522.56;5012701;28;19923;-80
2022/10/06 10:30:27;;;;;;;3.35;1.58;;;;;;;21.90;36.28;101517.44;4990330;28;20034;-76
2022/10/06 10:33:14;;;;;;;3.03;1.40;;;;;;;22.08;36.81;101510.53;4990562;28;20022;-78
2022/10/06 10:35:47;;;;;;;3.15;1.48;;;;;;;22.32;36.35;101515.06;4990206;28;20544;-76
2022/10/06 10:38:19;;;;;;;3.28;1.40;;;;;;;22.41;35.48;101501.97;4990335;28;20402;-77
2022/10/06 10:41:14;;;;;;;4.30;1.63;;;;;;;22.54;35.30;101504.66;4987911;28;20128;-77
2022/10/06 10:43:55;;;;;;;4.65;1.50;;;;;;;22.67;34.94;101490.69;4989718;28;20044;-76
2022/10/06 10:46:38;;;;;;;4.18;1.13;;;;;;;22.75;36.21;101499.50;4989962;28;20034;-76
2022/10/06 10:49:25;;;;;;;2.85;1.48;;;;;;;22.57;36.55;101491.53;4988189;28;20055;-76
2022/10/06 10:52:22;;;;;;;3.67;1.58;;;;;;;22.67;34.59;101477.53;4988820;28;20026;-75
2022/10/06 10:55:25;;;;;;;4.05;1.38;;;;;;;22.89;35.40;101482.81;4970426;28;20042;-74
2022/10/06 10:57:55;;;;;;;3.00;1.48;;;;;;;23.10;36.35;101474.97;4970229;28;20504;-75
2022/10/06 11:00:26;;;;;;;7.75;1.30;;;;;;;23.20;33.37;101464.47;4978298;28;20092;-75
2022/10/06 11:02:55;;;;;;;5.20;1.80;;;;;;;23.43;32.26;101467.97;5009176;28;20040;-76
2022/10/06 11:05:37;;;;;;;3.95;2.20;;;;;;;23.10;32.23;101455.63;5006746;28;20042;-79
2022/10/06 11:08:03;;;;;;;4.43;1.70;;;;;;;22.87;34.15;101471.44;5007083;28;20026;-77
2022/10/06 11:10:44;;;;;;;2.35;1.42;;;;;;;22.95;33.66;101464.41;5009019;28;20036;-76
2022/10/06 11:13:23;;;;;;;2.40;1.60;;;;;;;23.11;35.83;101452.13;5007884;28;20041;-79
2022/10/06 11:16:10;;;;;;;4.07;1.50;;;;;;;23.19;33.21;101452.16;5009156;28;20049;-78
2022/10/06 11:19:33;;;;;;;3.03;1.70;;;;;;;23.12;32.70;101424.06;4980722;28;20030;-77
2022/10/06 11:22:09;;;;;;;5.47;1.70;;;;;;;23.33;33.78;101454.78;4978061;28;20493;-86
2022/10/06 11:25:00;;;;;;;6.00;2.88;;;;;;;23.16;32.50;101446.91;4981095;28;20500;-81
2022/10/06 11:27:43;;;;;;;3.75;1.75;;;;;;;22.91;32.14;101415.25;4972020;28;20192;-79
2022/10/06 11:30:18;;;;;;;2.85;1.65;;;;;;;;;;4980145;28;20583;-79
2022/10/06 11:33:16;;;;;;;4.18;1.55;;;;;;;22.69;32.25;101436.28;5015385;28;20033;-84
2022/10/06 11:35:44;;;;;;;1.92;1.30;;;;;;;22.60;31.31;101438.88;5001261;28;20018;-83
2022/10/06 11:38:18;;;;;;;6.25;1.80;;;;;;;22.78;34.02;101435.44;5018577;28;20570;-83
2022/10/06 11:40:49;;;;;;;3.17;1.60;;;;;;;22.91;31.92;101410.84;4998833;28;20039;-83
2022/10/06 11:43:18;;;;;;;31.08;23.88;;;;;;;22.99;33.54;101402.97;5013932;28;20026;-82
2022/10/06 11:46:07;;;;;;;6.05;2.88;;;;;;;23.24;32.29;101427.59;5008369;28;20038;-79
2022/10/06 11:48:33;;;;;;;2.97;1.60;;;;;;;23.05;32.02;101417.91;4924514;29;20167;-84
2022/10/06 11:51:23;;;;;;;4.40;1.63;;;;;;;23.07;32.91;101426.69;4933534;29;20070;-85
2022/10/06 11:53:52;;;;;;;4.32;1.40;;;;;;;22.65;33.67;101413.44;4947106;29;20131;-81